Time;durP1;ratioP1;P1;durP2;ratioP2;P2;SDS_P1;SDS_P2;PMS_P1;PMS_P2;Temp;Humidity;BMP_temperature;BMP_pressure;BME280_temperature;BME280_humidity;BME280_pressure;Samples;Min_cycle;Max_cycle;Signal;HPM_P1;HPM_P2
2023/03/16 00:02:15;;;;;;;5.30;1.50;;;11.60;67.00;;;;;;4988414;28;20034;-86
2023/03/16 00:04:41;;;;;;;4.43;1.25;;;11.60;67.60;;;;;;4984254;28;20273;-84
2023/03/16 00:07:10;;;;;;;4.43;1.70;;;11.60;67.00;;;;;;4986720;28;20038;-84
2023/03/16 00:09:40;;;;;;;4.65;1.58;;;11.60;67.00;;;;;;4987778;28;20102;-81
2023/03/16 00:12:15;;;;;;;6.35;1.88;;;11.60;67.10;;;;;;4968395;28;20201;-81
2023/03/16 00:14:48;;;;;;;2.38;1.13;;;11.60;67.20;;;;;;4978703;28;20034;-83
2023/03/16 00:17:19;;;;;;;2.13;1.25;;;11.60;67.20;;;;;;4981963;28;20131;-82
2023/03/16 00:19:54;;;;;;;2.53;1.35;;;11.60;67.20;;;;;;4991751;28;20038;-81
2023/03/16 00:22:25;;;;;;;3.92;1.60;;;11.60;67.20;;;;;;4977273;28;20161;-81
2023/03/16 00:24:52;;;;;;;4.47;1.58;;;11.60;67.30;;;;;;4981884;28;20042;-80
2023/03/16 00:27:21;;;;;;;3.60;1.27;;;11.60;67.20;;;;;;4983998;28;20585;-82
2023/03/16 00:29:48;;;;;;;4.25;2.05;;;11.60;67.30;;;;;;4983132;28;20476;-81
2023/03/16 00:32:26;;;;;;;2.90;1.30;;;11.60;67.30;;;;;;4983461;28;20533;-83
2023/03/16 00:34:52;;;;;;;3.40;1.20;;;11.60;67.40;;;;;;4979603;28;20034;-81
2023/03/16 00:37:22;;;;;;;4.25;1.20;;;11.60;67.30;;;;;;4981899;28;20469;-79
2023/03/16 00:39:48;;;;;;;5.00;1.88;;;11.60;67.30;;;;;;4978202;28;20555;-79
2023/03/16 00:42:15;;;;;;;1.52;0.82;;;11.60;67.40;;;;;;4987623;28;20038;-80
2023/03/16 00:44:42;;;;;;;3.22;1.08;;;11.70;67.60;;;;;;4980778;28;20521;-80
2023/03/16 00:47:08;;;;;;;5.10;2.25;;;11.70;67.60;;;;;;4993543;28;20045;-82
2023/03/16 00:49:35;;;;;;;1.92;1.20;;;11.70;67.60;;;;;;4968250;28;20509;-81
2023/03/16 00:52:03;;;;;;;3.90;1.48;;;11.70;67.60;;;;;;4988880;28;20482;-82
2023/03/16 00:54:31;;;;;;;4.00;1.27;;;11.70;67.60;;;;;;4983170;28;20209;-83
2023/03/16 00:56:59;;;;;;;5.22;1.98;;;11.70;67.60;;;;;;4963456;28;20050;-81
2023/03/16 00:59:25;;;;;;;4.35;1.20;;;11.70;67.60;;;;;;4982107;28;20795;-80
2023/03/16 01:01:52;;;;;;;5.13;1.50;;;11.70;67.60;;;;;;4987364;28;20042;-80
2023/03/16 01:04:19;;;;;;;4.53;1.42;;;11.70;67.60;;;;;;4987573;28;20840;-81
2023/03/16 01:06:45;;;;;;;1.83;0.93;;;11.70;67.60;;;;;;4982896;28;20026;-81
2023/03/16 01:09:13;;;;;;;5.18;1.70;;;11.70;67.60;;;;;;4981727;28;20056;-82
2023/03/16 01:11:41;;;;;;;4.70;1.95;;;11.80;67.80;;;;;;4982655;28;20085;-80
2023/03/16 01:14:08;;;;;;;5.07;1.88;;;11.70;67.60;;;;;;4962184;28;20101;-81
2023/03/16 01:16:34;;;;;;;5.70;1.75;;;11.70;67.60;;;;;;4980969;28;20132;-80
2023/03/16 01:19:01;;;;;;;5.97;1.48;;;11.80;67.80;;;;;;4986354;28;20044;-82
2023/03/16 01:21:27;;;;;;;5.00;1.52;;;11.80;67.80;;;;;;4968322;28;20680;-83
2023/03/16 01:23:53;;;;;;;6.07;1.73;;;11.80;67.80;;;;;;4980858;28;20053;-82
2023/03/16 01:26:21;;;;;;;3.55;1.23;;;11.80;67.80;;;;;;4979579;28;20062;-83
2023/03/16 01:28:48;;;;;;;3.20;1.40;;;11.80;67.80;;;;;;4981836;28;20073;-83
2023/03/16 01:31:17;;;;;;;4.55;1.52;;;11.80;67.80;;;;;;4972114;28;20297;-83
2023/03/16 01:33:43;;;;;;;6.38;1.60;;;11.80;67.80;;;;;;4984563;28;20049;-82
2023/03/16 01:36:18;;;;;;;5.68;2.30;;;11.80;67.80;;;;;;4986597;28;20060;-83
2023/03/16 01:38:53;;;;;;;4.05;1.85;;;11.80;67.80;;;;;;4983399;28;20290;-82
2023/03/16 01:41:24;;;;;;;7.43;1.60;;;11.80;67.80;;;;;;4995610;28;20054;-83
2023/03/16 01:43:52;;;;;;;3.65;1.40;;;11.70;67.60;;;;;;4988386;28;20093;-82
2023/03/16 01:46:20;;;;;;;5.53;1.90;;;11.80;67.80;;;;;;4986561;28;20042;-83
2023/03/16 01:49:11;;;;;;;8.85;3.17;;;11.80;67.90;;;;;;4985689;28;20086;-81
2023/03/16 01:52:01;;;;;;;4.72;1.40;;;11.80;68.00;;;;;;4977484;28;20052;-83
2023/03/16 01:54:34;;;;;;;3.72;1.40;;;11.80;68.00;;;;;;4969126;28;20494;-84
2023/03/16 01:57:22;;;;;;;5.00;1.50;;;11.80;67.90;;;;;;4983200;28;20113;-83
2023/03/16 02:00:10;;;;;;;3.35;1.60;;;11.80;68.00;;;;;;4978386;28;20030;-84
2023/03/16 02:02:48;;;;;;;6.38;1.50;;;11.80;68.00;;;;;;4970479;28;20479;-85
2023/03/16 02:05:27;;;;;;;4.38;1.50;;;11.80;67.90;;;;;;4993973;28;20163;-85
2023/03/16 02:07:57;;;;;;;5.13;1.63;;;11.80;68.00;;;;;;4985557;28;20121;-85
2023/03/16 02:10:26;;;;;;;5.93;2.05;;;11.80;68.00;;;;;;4970179;28;20513;-85
2023/03/16 02:12:53;;;;;;;2.95;1.60;;;11.80;68.00;;;;;;4984771;28;20030;-84
2023/03/16 02:15:20;;;;;;;7.47;1.67;;;11.80;68.00;;;;;;4993736;28;20022;-85
2023/03/16 02:17:47;;;;;;;3.33;1.35;;;11.80;68.10;;;;;;4986510;28;20507;-85
2023/03/16 02:20:23;;;;;;;4.22;1.55;;;11.80;68.00;;;;;;4994938;28;20042;-85
2023/03/16 02:22:54;;;;;;;8.10;1.85;;;11.80;68.10;;;;;;4983239;28;20051;-84
2023/03/16 02:25:33;;;;;;;6.25;1.42;;;11.80;68.10;;;;;;4985298;28;20065;-84
2023/03/16 02:28:29;;;;;;;4.38;1.38;;;11.80;68.10;;;;;;4991594;28;20084;-84
2023/03/16 02:30:56;;;;;;;7.68;1.23;;;11.80;68.10;;;;;;4984176;28;20461;-85
2023/03/16 02:33:24;;;;;;;7.45;2.15;;;11.70;67.90;;;;;;4969407;28;20664;-84
2023/03/16 02:35:49;;;;;;;8.95;1.55;;;11.80;68.10;;;;;;4986494;28;20041;-86
2023/03/16 02:38:16;;;;;;;5.55;1.23;;;11.80;68.10;;;;;;4987452;28;20298;-86
2023/03/16 02:41:14;;;;;;;3.88;1.55;;;11.70;68.00;;;;;;4994053;28;20056;-87
2023/03/16 02:43:47;;;;;;;4.40;1.40;;;11.80;68.20;;;;;;4991459;28;20230;-86
2023/03/16 02:46:27;;;;;;;4.50;1.83;;;11.70;68.00;;;;;;4985393;28;20034;-85
2023/03/16 02:49:05;;;;;;;6.25;1.38;;;11.70;68.00;;;;;;4989114;28;20084;-86
2023/03/16 02:51:31;;;;;;;8.30;2.10;;;11.70;68.10;;;;;;4972303;28;20038;-85
2023/03/16 02:53:57;;;;;;;6.28;1.60;;;11.70;68.00;;;;;;4988544;28;20030;-84
2023/03/16 02:56:25;;;;;;;3.22;1.60;;;11.70;68.10;;;;;;4987764;28;20045;-83
2023/03/16 02:58:51;;;;;;;5.00;1.80;;;11.70;68.10;;;;;;4987415;28;20060;-83
2023/03/16 03:01:19;;;;;;;4.45;1.35;;;11.70;68.10;;;;;;4984079;28;20026;-82
2023/03/16 03:03:45;;;;;;;4.45;1.80;;;11.70;68.10;;;;;;4985313;28;20100;-81
2023/03/16 03:06:11;;;;;;;4.15;1.33;;;11.70;68.20;;;;;;4989389;28;20041;-82
2023/03/16 03:08:37;;;;;;;3.95;1.90;;;11.70;68.20;;;;;;4987839;28;20034;-81
2023/03/16 03:11:03;;;;;;;2.70;0.95;;;11.70;68.20;;;;;;4987123;28;20034;-81
2023/03/16 03:13:30;;;;;;;6.93;2.38;;;11.70;68.20;;;;;;4987306;28;20034;-81
2023/03/16 03:15:56;;;;;;;3.95;1.23;;;11.70;68.20;;;;;;4996514;28;20030;-81
2023/03/16 03:18:25;;;;;;;6.93;2.95;;;11.70;68.20;;;;;;4969838;28;20074;-81
2023/03/16 03:20:52;;;;;;;7.85;1.92;;;11.70;68.20;;;;;;4978147;28;20027;-81
2023/03/16 03:23:18;;;;;;;6.10;1.23;;;11.70;68.20;;;;;;4985338;28;20038;-82
2023/03/16 03:25:44;;;;;;;4.13;1.08;;;11.70;68.20;;;;;;4987345;28;20046;-80
2023/03/16 03:28:13;;;;;;;5.88;1.90;;;11.70;68.30;;;;;;4980060;28;20050;-82
2023/03/16 03:30:40;;;;;;;6.13;2.03;;;11.70;68.30;;;;;;4988309;28;20034;-81
2023/03/16 03:33:06;;;;;;;4.97;1.40;;;11.70;68.30;;;;;;4987181;28;20038;-82
2023/03/16 03:35:32;;;;;;;2.85;1.20;;;11.70;68.30;;;;;;4986248;28;20042;-81
2023/03/16 03:37:58;;;;;;;3.25;1.20;;;11.70;68.30;;;;;;4983653;28;20624;-82
2023/03/16 03:40:25;;;;;;;2.63;1.23;;;11.70;68.40;;;;;;4979904;28;20394;-82
2023/03/16 03:42:57;;;;;;;2.60;1.15;;;11.70;68.40;;;;;;4984228;28;20112;-81
2023/03/16 03:45:24;;;;;;;4.13;1.10;;;11.70;68.40;;;;;;4985165;28;20066;-82
2023/03/16 03:47:51;;;;;;;3.70;1.38;;;11.70;68.50;;;;;;4985960;28;20097;-84
2023/03/16 03:50:20;;;;;;;6.80;1.33;;;11.70;68.50;;;;;;4984860;28;20402;-83
2023/03/16 03:53:04;;;;;;;6.00;1.08;;;11.70;68.50;;;;;;4967821;28;20029;-85
2023/03/16 03:55:37;;;;;;;2.83;1.35;;;11.70;68.50;;;;;;4985877;28;20046;-86
2023/03/16 03:58:03;;;;;;;4.32;1.30;;;11.70;68.50;;;;;;4979216;28;20041;-85
2023/03/16 04:00:29;;;;;;;3.85;1.10;;;11.70;68.50;;;;;;4971031;28;20030;-84
2023/03/16 04:02:55;;;;;;;2.47;1.30;;;11.70;68.50;;;;;;4986497;28;20030;-85
2023/03/16 04:05:30;;;;;;;1.90;0.93;;;11.70;68.60;;;;;;4984760;28;20037;-83
2023/03/16 04:07:56;;;;;;;5.30;2.13;;;11.70;68.60;;;;;;4986464;28;20713;-83
2023/03/16 04:10:27;;;;;;;1.88;1.58;;;11.70;68.50;;;;;;4985728;28;20425;-83
2023/03/16 04:12:56;;;;;;;4.68;1.40;;;11.70;68.60;;;;;;4984627;28;20044;-84
2023/03/16 04:15:25;;;;;;;2.80;1.30;;;11.70;68.60;;;;;;4996447;28;20114;-83
2023/03/16 04:18:11;;;;;;;2.78;1.10;;;11.70;68.60;;;;;;4986823;28;20045;-84
2023/03/16 04:20:38;;;;;;;4.65;1.73;;;11.70;68.60;;;;;;4984107;28;20041;-84
2023/03/16 04:23:06;;;;;;;2.88;1.20;;;11.70;68.60;;;;;;4986173;28;20077;-83
2023/03/16 04:25:37;;;;;;;7.30;1.83;;;11.70;68.70;;;;;;4976830;28;20136;-84
2023/03/16 04:28:04;;;;;;;3.13;1.30;;;11.70;68.70;;;;;;4996252;28;20038;-84
2023/03/16 04:30:33;;;;;;;5.15;2.42;;;11.70;68.70;;;;;;4982939;28;20035;-84
2023/03/16 04:33:16;;;;;;;4.65;1.60;;;11.60;68.50;;;;;;4983025;28;20040;-82
2023/03/16 04:35:44;;;;;;;3.45;1.45;;;11.70;68.70;;;;;;4979571;28;20034;-83
2023/03/16 04:38:11;;;;;;;4.00;1.98;;;11.70;68.70;;;;;;4982309;28;20060;-82
2023/03/16 04:40:49;;;;;;;6.18;1.55;;;11.70;68.70;;;;;;4980303;28;20042;-81
2023/03/16 04:43:18;;;;;;;3.38;1.23;;;11.60;68.60;;;;;;4984014;28;20042;-83
2023/03/16 04:45:45;;;;;;;6.20;1.45;;;11.70;68.80;;;;;;4984302;28;20544;-81
2023/03/16 04:48:12;;;;;;;3.55;1.30;;;11.70;68.80;;;;;;4984740;28;20039;-82
2023/03/16 04:50:39;;;;;;;4.72;1.58;;;11.70;68.80;;;;;;4984047;28;20034;-84
2023/03/16 04:53:05;;;;;;;4.72;1.70;;;11.60;68.70;;;;;;4969604;28;20580;-84
2023/03/16 04:55:34;;;;;;;4.03;1.60;;;11.70;68.90;;;;;;4985833;28;20105;-83
2023/03/16 04:58:02;;;;;;;2.97;1.35;;;11.70;68.90;;;;;;4986179;28;20206;-83
2023/03/16 05:00:32;;;;;;;3.80;1.30;;;11.70;68.90;;;;;;4985627;28;20569;-84
2023/03/16 05:03:04;;;;;;;2.92;1.55;;;11.70;68.90;;;;;;4986221;28;20133;-81
2023/03/16 05:05:31;;;;;;;6.10;2.38;;;11.70;68.90;;;;;;4968725;28;20030;-82
2023/03/16 05:08:00;;;;;;;5.68;2.00;;;11.70;68.90;;;;;;4987499;28;20149;-84
2023/03/16 05:10:28;;;;;;;5.00;1.10;;;11.70;68.90;;;;;;4974472;28;20042;-82
2023/03/16 05:12:55;;;;;;;7.57;1.52;;;11.70;68.90;;;;;;4990543;28;20102;-82
2023/03/16 05:15:22;;;;;;;3.22;1.10;;;11.70;68.90;;;;;;4990035;28;20580;-84
2023/03/16 05:18:20;;;;;;;4.43;1.27;;;11.60;68.70;;;;;;4981304;28;20040;-82
2023/03/16 05:20:56;;;;;;;3.22;1.88;;;11.70;68.90;;;;;;4989977;28;20113;-84
2023/03/16 05:23:25;;;;;;;4.18;1.35;;;11.70;69.00;;;;;;4990571;28;20129;-82
2023/03/16 05:26:00;;;;;;;6.50;1.58;;;11.70;69.00;;;;;;4991031;28;20105;-84
2023/03/16 05:28:28;;;;;;;5.57;1.27;;;11.70;69.00;;;;;;4978904;28;20439;-84
2023/03/16 05:31:02;;;;;;;5.35;1.50;;;11.70;69.00;;;;;;4990994;28;20375;-86
2023/03/16 05:33:32;;;;;;;4.43;2.13;;;11.70;69.00;;;;;;4989291;28;20041;-86
2023/03/16 05:36:04;;;;;;;3.70;1.40;;;11.70;69.10;;;;;;4983280;28;20383;-86
2023/03/16 05:38:32;;;;;;;3.45;1.27;;;11.70;69.10;;;;;;4993104;28;20229;-90
2023/03/16 05:41:03;;;;;;;5.80;2.20;;;11.70;69.10;;;;;;4986683;28;20035;-81
2023/03/16 05:43:48;;;;;;;4.85;1.63;;;11.70;69.20;;;;;;4991871;28;20077;-84
2023/03/16 05:46:18;;;;;;;4.47;1.60;;;11.70;69.20;;;;;;4954858;28;20077;-79
2023/03/16 05:48:45;;;;;;;5.50;2.28;;;11.70;69.20;;;;;;4994728;28;20089;-81
2023/03/16 05:51:13;;;;;;;5.30;1.40;;;11.70;69.20;;;;;;4988346;28;20065;-91
2023/03/16 05:53:41;;;;;;;6.30;1.92;;;11.70;69.20;;;;;;4989622;28;20129;-90
2023/03/16 05:56:15;;;;;;;4.38;1.58;;;11.70;69.20;;;;;;4978919;28;20118;-91
2023/03/16 05:58:44;;;;;;;6.97;2.72;;;11.70;69.30;;;;;;4989184;28;20038;-92
2023/03/16 06:01:12;;;;;;;8.38;2.08;;;11.70;69.30;;;;;;4990442;28;20098;-88
2023/03/16 06:03:40;;;;;;;4.05;1.33;;;11.70;69.30;;;;;;4983401;28;20039;-80
2023/03/16 06:06:08;;;;;;;6.03;2.08;;;11.70;69.30;;;;;;5005728;28;20038;-80
2023/03/16 06:08:46;;;;;;;3.92;1.60;;;11.70;69.30;;;;;;5010109;28;20042;-79
2023/03/16 06:11:13;;;;;;;6.32;2.20;;;11.70;69.30;;;;;;5007673;28;20011;-80
2023/03/16 06:13:40;;;;;;;5.75;1.85;;;11.70;69.40;;;;;;5011083;28;20057;-81
2023/03/16 06:16:06;;;;;;;8.10;1.83;;;11.70;69.40;;;;;;5014369;28;20096;-79
2023/03/16 06:18:34;;;;;;;6.85;1.80;;;11.70;69.40;;;;;;4991808;28;20517;-80
2023/03/16 06:21:01;;;;;;;2.78;1.48;;;11.70;69.40;;;;;;5004501;28;20022;-81
2023/03/16 06:23:28;;;;;;;8.82;2.55;;;11.70;69.50;;;;;;4993961;28;20094;-81
2023/03/16 06:25:58;;;;;;;7.65;2.47;;;11.70;69.50;;;;;;4994558;28;20039;-82
2023/03/16 06:28:25;;;;;;;6.57;2.60;;;11.70;69.50;;;;;;4990794;28;20040;-81
2023/03/16 06:30:56;;;;;;;5.78;1.83;;;11.70;69.50;;;;;;4995134;28;20030;-84
2023/03/16 06:33:24;;;;;;;9.43;3.45;;;11.70;69.60;;;;;;4989312;28;20038;-82
2023/03/16 06:35:51;;;;;;;5.82;1.50;;;11.70;69.50;;;;;;4991440;28;20209;-79
2023/03/16 06:38:28;;;;;;;8.18;2.00;;;11.70;69.60;;;;;;4971001;28;20034;-81
2023/03/16 06:41:08;;;;;;;6.88;2.25;;;11.70;70.10;;;;;;4992016;28;20148;-80
2023/03/16 06:43:35;;;;;;;5.28;1.40;;;11.70;69.50;;;;;;4983943;28;20031;-78
2023/03/16 06:46:02;;;;;;;8.05;1.98;;;11.70;69.50;;;;;;4983057;28;20061;-78
2023/03/16 06:48:29;;;;;;;7.22;2.08;;;11.70;69.80;;;;;;4981633;28;20046;-79
2023/03/16 06:50:55;;;;;;;7.55;2.30;;;11.70;69.50;;;;;;4982473;28;20109;-78
2023/03/16 06:53:25;;;;;;;8.10;2.22;;;11.80;69.70;;;;;;4981097;28;20072;-84
2023/03/16 06:55:52;;;;;;;10.23;2.13;;;11.70;69.50;;;;;;4974924;28;20065;-82
2023/03/16 06:58:18;;;;;;;5.63;1.95;;;11.80;69.70;;;;;;4993161;28;20042;-82
2023/03/16 07:00:47;;;;;;;7.05;1.95;;;11.80;69.70;;;;;;4990604;28;20100;-80
2023/03/16 07:03:13;;;;;;;8.38;2.00;;;11.80;69.80;;;;;;4985846;28;20030;-78
2023/03/16 07:05:46;;;;;;;6.00;2.10;;;11.80;69.80;;;;;;4988486;28;20042;-79
2023/03/16 07:08:13;;;;;;;10.70;2.75;;;11.80;69.90;;;;;;4985855;28;20109;-82
2023/03/16 07:10:41;;;;;;;6.63;3.05;;;11.80;70.00;;;;;;4988419;28;20038;-78
2023/03/16 07:13:09;;;;;;;6.45;2.65;;;11.90;70.20;;;;;;4987700;28;20117;-77
2023/03/16 07:15:35;;;;;;;6.60;2.03;;;11.90;70.20;;;;;;4990609;28;20178;-80
2023/03/16 07:18:02;;;;;;;4.70;1.73;;;11.90;70.20;;;;;;4990863;28;20053;-79
2023/03/16 07:20:30;;;;;;;5.53;2.25;;;11.90;70.20;;;;;;4978059;28;20149;-78
2023/03/16 07:22:58;;;;;;;4.95;1.98;;;11.90;70.20;;;;;;4982859;28;20034;-78
2023/03/16 07:25:24;;;;;;;10.95;2.20;;;11.90;70.30;;;;;;4988927;28;20038;-80
2023/03/16 07:27:53;;;;;;;7.53;2.90;;;11.90;70.30;;;;;;4983405;28;20141;-85
2023/03/16 07:30:26;;;;;;;10.10;2.78;;;11.90;70.30;;;;;;4974741;28;20034;-80
2023/03/16 07:32:52;;;;;;;6.60;1.98;;;11.90;70.30;;;;;;4971925;28;20053;-82
2023/03/16 07:35:21;;;;;;;7.03;1.88;;;12.00;70.60;;;;;;4968995;28;20537;-81
2023/03/16 07:37:48;;;;;;;5.10;1.95;;;12.00;70.60;;;;;;4976068;28;20037;-86
2023/03/16 07:40:14;;;;;;;8.85;2.40;;;12.00;70.60;;;;;;4986358;28;20069;-84
2023/03/16 07:42:41;;;;;;;4.25;2.05;;;12.10;70.80;;;;;;4982507;28;20749;-83
2023/03/16 07:45:09;;;;;;;5.40;1.98;;;12.10;70.80;;;;;;4966540;28;20521;-78
2023/03/16 07:47:36;;;;;;;5.75;2.00;;;12.10;70.80;;;;;;4968163;28;20481;-81
2023/03/16 07:50:10;;;;;;;6.35;2.88;;;12.10;70.80;;;;;;4971259;28;20038;-79
2023/03/16 07:52:40;;;;;;;6.40;2.65;;;12.20;71.00;;;;;;4981729;28;20088;-79
2023/03/16 07:55:07;;;;;;;4.88;2.03;;;12.30;71.10;;;;;;4979105;28;20038;-78
2023/03/16 07:57:33;;;;;;;5.85;1.90;;;12.30;71.00;;;;;;4976744;28;20146;-77
2023/03/16 08:00:03;;;;;;;6.75;2.08;;;12.30;71.00;;;;;;4980674;28;20050;-79
2023/03/16 08:02:39;;;;;;;6.30;2.08;;;12.30;71.00;;;;;;4977513;28;20805;-78
2023/03/16 08:05:09;;;;;;;7.30;2.72;;;12.30;71.00;;;;;;4976283;28;20478;-77
2023/03/16 08:07:37;;;;;;;7.70;2.85;;;12.30;71.00;;;;;;4978154;28;20038;-77
2023/03/16 08:10:10;;;;;;;6.82;2.33;;;12.30;71.00;;;;;;4977827;28;20030;-77
2023/03/16 08:12:43;;;;;;;;;;;12.40;71.20;;;;;;4965352;28;20421;-78
2023/03/16 08:15:10;;;;;;;5.57;2.45;;;12.40;71.20;;;;;;4976604;28;19967;-77
2023/03/16 08:17:40;;;;;;;5.38;1.88;;;12.40;71.00;;;;;;4970571;28;20034;-77
2023/03/16 08:20:11;;;;;;;5.70;1.90;;;12.40;71.00;;;;;;4977842;28;20026;-77
2023/03/16 08:22:38;;;;;;;6.80;2.75;;;12.50;71.30;;;;;;4982366;28;20108;-77
2023/03/16 08:25:09;;;;;;;7.35;2.22;;;12.50;71.30;;;;;;4982534;28;20457;-77
2023/03/16 08:27:36;;;;;;;5.40;2.38;;;12.50;71.30;;;;;;4981135;28;20042;-77
2023/03/16 08:30:10;;;;;;;5.93;1.92;;;12.50;71.20;;;;;;4984001;28;20037;-77
2023/03/16 08:32:41;;;;;;;5.45;1.50;;;12.50;71.20;;;;;;4977188;28;20541;-77
2023/03/16 08:35:13;;;;;;;4.15;1.40;;;12.50;71.20;;;;;;4984496;28;20030;-81
2023/03/16 08:37:40;;;;;;;2.90;1.40;;;12.60;71.30;;;;;;4969303;28;20045;-80
2023/03/16 08:40:12;;;;;;;5.18;1.83;;;12.60;71.30;;;;;;4985817;28;20193;-78
2023/03/16 08:42:40;;;;;;;3.67;1.60;;;12.60;71.20;;;;;;4986268;28;20386;-77
2023/03/16 08:45:09;;;;;;;6.72;2.70;;;12.70;71.40;;;;;;4993990;28;20096;-77
2023/03/16 08:47:39;;;;;;;4.07;2.00;;;12.60;71.10;;;;;;4988708;28;20039;-78
2023/03/16 08:50:07;;;;;;;6.68;2.55;;;12.70;71.30;;;;;;4980569;28;20414;-77
2023/03/16 08:52:35;;;;;;;4.75;1.60;;;12.70;71.20;;;;;;4986607;28;20884;-79
2023/03/16 08:55:04;;;;;;;6.88;2.10;;;12.70;71.20;;;;;;4983513;28;20565;-78
2023/03/16 08:57:32;;;;;;;5.13;1.83;;;12.70;71.20;;;;;;4986774;28;20045;-79
2023/03/16 08:59:58;;;;;;;6.88;1.83;;;12.70;71.20;;;;;;4987165;28;20114;-78
2023/03/16 09:02:25;;;;;;;3.28;1.95;;;12.70;71.20;;;;;;4985263;28;20040;-78
2023/03/16 09:04:51;;;;;;;7.15;1.83;;;12.70;71.20;;;;;;4990493;28;20038;-80
2023/03/16 09:07:18;;;;;;;5.95;2.20;;;12.80;71.40;;;;;;4989982;28;20359;-78
2023/03/16 09:09:45;;;;;;;5.00;3.60;;;12.80;71.40;;;;;;4982184;28;20034;-79
2023/03/16 09:12:12;;;;;;;3.88;1.70;;;12.80;71.40;;;;;;4990482;28;20066;-78
2023/03/16 09:14:38;;;;;;;4.75;2.28;;;12.90;71.50;;;;;;4989230;28;20203;-78
2023/03/16 09:17:10;;;;;;;4.60;1.67;;;13.00;71.60;;;;;;4978415;28;20101;-78
2023/03/16 09:19:38;;;;;;;5.97;2.30;;;13.00;71.50;;;;;;4986310;28;20493;-79
2023/03/16 09:22:04;;;;;;;3.78;2.30;;;13.10;71.60;;;;;;4984741;28;20041;-78
2023/03/16 09:24:29;;;;;;;5.93;2.28;;;13.20;71.70;;;;;;4980083;28;20042;-78
2023/03/16 09:26:56;;;;;;;6.00;2.25;;;13.30;71.70;;;;;;4986352;28;20811;-77
2023/03/16 09:29:22;;;;;;;5.22;1.83;;;13.50;71.60;;;;;;4986176;28;20038;-77
2023/03/16 09:31:49;;;;;;;8.52;1.67;;;13.70;71.50;;;;;;4980912;28;20030;-78
2023/03/16 09:34:15;;;;;;;5.28;2.05;;;13.90;71.50;;;;;;4983495;28;20072;-79
2023/03/16 09:36:41;;;;;;;5.47;1.40;;;14.10;71.40;;;;;;4988725;28;20154;-78
2023/03/16 09:39:07;;;;;;;5.00;1.80;;;14.20;71.00;;;;;;4982466;28;20030;-79
2023/03/16 09:42:14;;;;;;;3.92;1.70;;;14.40;71.00;;;;;;4987597;28;20022;-80
2023/03/16 09:44:59;;;;;;;7.72;2.03;;;14.50;70.90;;;;;;4971793;28;20365;-79
2023/03/16 09:47:29;;;;;;;5.30;1.67;;;14.60;70.80;;;;;;4986560;28;20030;-78
2023/03/16 09:49:59;;;;;;;5.38;1.70;;;14.60;70.50;;;;;;4987395;28;20065;-78
2023/03/16 09:52:37;;;;;;;3.60;1.40;;;14.70;71.10;;;;;;4985002;28;20038;-79
2023/03/16 09:55:27;;;;;;;5.15;1.60;;;14.70;70.50;;;;;;4990367;28;20485;-77
2023/03/16 09:57:54;;;;;;;6.30;2.10;;;14.70;70.40;;;;;;4981310;28;20034;-79
2023/03/16 10:00:26;;;;;;;6.28;1.50;;;14.80;70.50;;;;;;4990461;28;20321;-80
2023/03/16 10:02:52;;;;;;;7.33;1.80;;;14.80;70.30;;;;;;4995128;28;20052;-78
2023/03/16 10:05:21;;;;;;;4.45;2.25;;;14.80;70.20;;;;;;4996492;28;20383;-80
2023/03/16 10:08:07;;;;;;;4.85;1.35;;;14.80;70.10;;;;;;4992061;28;20433;-80
2023/03/16 10:11:11;;;;;;;4.68;1.80;;;14.80;70.00;;;;;;4995037;28;20056;-77
2023/03/16 10:13:46;;;;;;;4.22;2.03;;;14.80;70.00;;;;;;4987687;28;20080;-79
2023/03/16 10:16:19;;;;;;;5.60;1.50;;;14.80;70.10;;;;;;4988957;28;20050;-81
2023/03/16 10:18:49;;;;;;;5.15;1.60;;;14.70;69.90;;;;;;4991293;28;20040;-76
2023/03/16 10:21:18;;;;;;;6.05;1.92;;;14.70;69.90;;;;;;4988247;28;20045;-78
2023/03/16 10:23:45;;;;;;;6.38;1.83;;;14.70;70.00;;;;;;4983455;28;20080;-77
2023/03/16 10:26:17;;;;;;;6.65;1.80;;;14.70;70.00;;;;;;4987542;28;20034;-78
2023/03/16 10:28:45;;;;;;;5.07;2.03;;;14.60;69.80;;;;;;4992992;28;20037;-77
2023/03/16 10:31:13;;;;;;;3.45;1.20;;;14.60;69.80;;;;;;4990596;28;20034;-79
2023/03/16 10:33:39;;;;;;;5.32;2.08;;;14.70;69.80;;;;;;4993770;28;20038;-78
2023/03/16 10:36:40;;;;;;;4.13;1.50;;;14.80;69.70;;;;;;4992991;28;20034;-77
2023/03/16 10:39:10;;;;;;;4.18;1.60;;;14.90;69.50;;;;;;4970650;28;20046;-79
2023/03/16 10:41:44;;;;;;;5.40;2.05;;;15.10;69.60;;;;;;4980376;28;20030;-78
2023/03/16 10:44:12;;;;;;;4.50;1.83;;;15.20;69.50;;;;;;4976836;28;20049;-78
2023/03/16 10:47:07;;;;;;;7.03;1.90;;;15.30;69.40;;;;;;4982997;28;20117;-78
2023/03/16 10:49:43;;;;;;;5.53;1.85;;;15.40;69.30;;;;;;4985163;28;20295;-78
2023/03/16 10:52:18;;;;;;;4.35;1.65;;;15.60;69.20;;;;;;4983801;28;20050;-78
2023/03/16 10:54:56;;;;;;;4.03;1.40;;;15.80;69.00;;;;;;4987816;28;20034;-78
2023/03/16 10:57:33;;;;;;;5.82;2.05;;;16.10;69.00;;;;;;4983201;28;20109;-78
2023/03/16 11:00:20;;;;;;;;;;;16.30;68.80;;;;;;4983546;28;20506;-78
2023/03/16 11:02:50;;;;;;;6.70;1.90;;;16.50;68.70;;;;;;4982756;28;19909;-78
2023/03/16 11:05:16;;;;;;;6.50;1.50;;;16.60;68.40;;;;;;4982290;28;20050;-78
2023/03/16 11:07:50;;;;;;;2.53;1.60;;;16.80;68.30;;;;;;4983663;28;20037;-78
2023/03/16 11:10:37;;;;;;;4.95;1.52;;;16.90;68.10;;;;;;4980515;28;20054;-78
2023/03/16 11:13:13;;;;;;;3.72;2.05;;;16.90;67.80;;;;;;4975896;28;20449;-78
2023/03/16 11:15:56;;;;;;;4.93;1.30;;;17.00;67.80;;;;;;4985641;28;20040;-78
2023/03/16 11:18:31;;;;;;;8.50;2.45;;;17.00;67.70;;;;;;4983838;28;20554;-78
2023/03/16 11:21:07;;;;;;;7.07;1.95;;;17.00;67.70;;;;;;4977242;28;20038;-76
2023/03/16 11:23:36;;;;;;;4.93;1.60;;;17.10;67.70;;;;;;4993041;28;20132;-77
2023/03/16 11:26:06;;;;;;;6.35;1.75;;;17.10;67.50;;;;;;4984447;28;20391;-79
2023/03/16 11:28:40;;;;;;;1.80;1.15;;;17.20;67.40;;;;;;4989835;28;20029;-78
2023/03/16 11:31:26;;;;;;;4.18;1.10;;;17.20;67.20;;;;;;4983911;28;20120;-80
2023/03/16 11:33:54;;;;;;;4.90;1.65;;;17.30;67.20;;;;;;4982950;28;20105;-81
2023/03/16 11:36:26;;;;;;;7.45;1.70;;;17.30;67.00;;;;;;4989008;28;20056;-79
2023/03/16 11:39:19;;;;;;;5.25;1.50;;;17.30;66.80;;;;;;4980247;28;20042;-77
2023/03/16 11:41:54;;;;;;;3.47;1.53;;;17.30;66.70;;;;;;4987255;28;20453;-79
2023/03/16 11:44:29;;;;;;;4.93;1.40;;;17.30;66.70;;;;;;4984296;28;20309;-79
2023/03/16 11:47:19;;;;;;;4.47;2.05;;;17.30;66.60;;;;;;5000815;28;20030;-78
2023/03/16 11:50:10;;;;;;;5.90;1.98;;;17.30;66.40;;;;;;4993331;28;20073;-78
2023/03/16 11:52:54;;;;;;;7.90;2.35;;;17.30;66.40;;;;;;5011092;28;20128;-77
2023/03/16 11:55:51;;;;;;;8.85;2.40;;;17.30;66.50;;;;;;4991990;28;20030;-81
2023/03/16 11:58:50;;;;;;;6.35;2.10;;;17.20;66.70;;;;;;5016419;28;20026;-78
2023/03/16 12:01:26;;;;;;;8.35;2.40;;;17.20;67.10;;;;;;5004200;28;20041;-80
2023/03/16 12:04:26;;;;;;;12.38;2.35;;;17.20;67.10;;;;;;5002732;28;20148;-78
2023/03/16 12:07:21;;;;;;;6.18;2.00;;;17.20;67.00;;;;;;4973918;28;20100;-77
2023/03/16 12:09:51;;;;;;;4.45;1.70;;;17.30;67.00;;;;;;4986437;28;20481;-78
2023/03/16 12:12:27;;;;;;;9.93;2.65;;;17.30;66.90;;;;;;4986300;28;20350;-79
2023/03/16 12:15:07;;;;;;;5.63;1.85;;;17.30;66.80;;;;;;4965737;28;20034;-80
2023/03/16 12:17:39;;;;;;;6.60;1.83;;;17.30;66.80;;;;;;4981186;28;20481;-79
2023/03/16 12:20:22;;;;;;;6.13;1.92;;;17.20;66.60;;;;;;4963919;28;20069;-79
2023/03/16 12:22:54;;;;;;;7.80;1.58;;;17.30;66.70;;;;;;4980401;28;20138;-80
2023/03/16 12:25:31;;;;;;;7.57;1.73;;;17.20;66.50;;;;;;4984055;28;20037;-82
2023/03/16 12:28:00;;;;;;;4.95;1.70;;;17.20;66.40;;;;;;4986732;28;20474;-80
2023/03/16 12:30:39;;;;;;;5.10;1.77;;;17.20;66.40;;;;;;4984444;28;20541;-78
2023/03/16 12:33:27;;;;;;;3.80;1.67;;;17.10;66.20;;;;;;4969054;28;20034;-79
2023/03/16 12:35:56;;;;;;;8.60;2.25;;;17.10;66.20;;;;;;4991887;28;20035;-78
2023/03/16 12:38:28;;;;;;;7.18;2.88;;;17.00;66.20;;;;;;4986863;28;20023;-76
2023/03/16 12:41:15;;;;;;;5.50;2.17;;;17.00;66.20;;;;;;4975825;28;20042;-78
2023/03/16 12:43:48;;;;;;;6.80;2.08;;;17.00;66.20;;;;;;4972224;28;20189;-78
2023/03/16 12:46:37;;;;;;;5.00;1.27;;;16.90;66.10;;;;;;4978146;28;20022;-79
2023/03/16 12:49:06;;;;;;;5.85;1.77;;;16.80;65.90;;;;;;4977733;28;20859;-78
2023/03/16 12:51:38;;;;;;;4.32;1.50;;;16.70;66.00;;;;;;4981063;28;20039;-79
2023/03/16 12:54:06;;;;;;;5.63;1.63;;;16.70;66.10;;;;;;4980034;28;20037;-80
2023/03/16 12:56:36;;;;;;;5.53;2.47;;;16.70;66.20;;;;;;4981122;28;20048;-81
2023/03/16 12:59:06;;;;;;;3.33;1.20;;;16.70;66.20;;;;;;4981729;28;20034;-80
2023/03/16 13:01:42;;;;;;;5.15;1.50;;;16.60;65.90;;;;;;4965842;28;20453;-80
2023/03/16 13:04:15;;;;;;;4.03;1.50;;;16.60;65.90;;;;;;4982599;28;20056;-79
2023/03/16 13:06:49;;;;;;;3.88;1.30;;;16.60;66.00;;;;;;4974972;28;20041;-78
2023/03/16 13:09:23;;;;;;;4.07;1.80;;;16.50;65.80;;;;;;4985453;28;20053;-80
2023/03/16 13:11:49;;;;;;;2.85;1.30;;;16.40;65.70;;;;;;4982630;28;20034;-79